Time;durP1;ratioP1;P1;durP2;ratioP2;P2;SDS_P1;SDS_P2;PMS_P1;PMS_P2;Temp;Humidity;BMP_temperature;BMP_pressure;BME280_temperature;BME280_humidity;BME280_pressure;Samples;Min_cycle;Max_cycle;Signal;HPM_P1;HPM_P2
2023/10/16 00:00:30;;;;;;;5.82;1.33;;;7.60;99.90;;;;;;5093491;28;20070;-63
2023/10/16 00:03:00;;;;;;;2.95;1.35;;;7.60;99.90;;;;;;5093242;28;20059;-63
2023/10/16 00:05:38;;;;;;;2.58;1.05;;;7.70;99.90;;;;;;5092520;28;20082;-61
2023/10/16 00:08:08;;;;;;;3.65;1.83;;;7.70;99.90;;;;;;5099607;27;20043;-62
2023/10/16 00:10:35;;;;;;;3.08;1.08;;;7.60;99.90;;;;;;5134370;27;20059;-62
2023/10/16 00:13:07;;;;;;;3.15;1.23;;;7.70;99.90;;;;;;5116859;27;20058;-63
2023/10/16 00:15:44;;;;;;;1.27;1.02;;;7.60;99.90;;;;;;5133958;27;20134;-63
2023/10/16 00:18:17;;;;;;;4.22;1.65;;;7.50;99.90;;;;;;5130071;27;20051;-63
2023/10/16 00:20:44;;;;;;;2.60;1.30;;;7.60;99.90;;;;;;5112439;28;20063;-62
2023/10/16 00:23:11;;;;;;;3.75;1.13;;;7.60;99.90;;;;;;5113100;28;20456;-63
2023/10/16 00:25:39;;;;;;;3.00;1.27;;;7.60;99.90;;;;;;5114285;28;20060;-63
2023/10/16 00:28:09;;;;;;;1.85;1.20;;;7.50;99.90;;;;;;5096715;27;20057;-63
2023/10/16 00:30:40;;;;;;;1.70;0.98;;;7.50;99.90;;;;;;5114213;28;20050;-62
2023/10/16 00:33:10;;;;;;;3.00;1.67;;;7.70;99.90;;;;;;5112721;28;20065;-62
2023/10/16 00:35:40;;;;;;;2.63;1.38;;;7.60;99.90;;;;;;5114021;28;20047;-63
2023/10/16 00:38:13;;;;;;;5.78;1.95;;;7.70;99.90;;;;;;5115803;27;20127;-62
2023/10/16 00:40:51;;;;;;;2.40;1.60;;;7.60;99.90;;;;;;5133770;27;20050;-63
2023/10/16 00:43:22;;;;;;;4.25;2.38;;;7.60;99.90;;;;;;5132948;27;20070;-63
2023/10/16 00:45:50;;;;;;;4.05;2.25;;;7.70;99.90;;;;;;5133688;27;20050;-63
2023/10/16 00:48:17;;;;;;;4.18;1.98;;;7.50;99.90;;;;;;5115679;27;20415;-62
2023/10/16 00:50:45;;;;;;;5.28;2.03;;;7.60;99.90;;;;;;5133049;27;20047;-64
2023/10/16 00:53:20;;;;;;;7.00;2.47;;;7.60;99.90;;;;;;5133564;27;20058;-63
2023/10/16 00:55:49;;;;;;;6.28;2.75;;;7.60;99.90;;;;;;5135390;27;20047;-63
2023/10/16 00:58:16;;;;;;;7.80;2.83;;;7.60;99.90;;;;;;5135492;27;20050;-62
2023/10/16 01:00:46;;;;;;;5.28;2.33;;;7.60;99.90;;;;;;5135201;27;20084;-63
2023/10/16 01:03:14;;;;;;;5.10;2.35;;;7.50;99.90;;;;;;5134013;27;20070;-62
2023/10/16 01:05:42;;;;;;;7.35;2.80;;;7.60;99.90;;;;;;5133679;27;20485;-63
2023/10/16 01:08:10;;;;;;;5.57;2.60;;;7.60;99.90;;;;;;5132768;27;20062;-63
2023/10/16 01:10:40;;;;;;;5.30;2.80;;;7.50;99.90;;;;;;5134266;27;20061;-61
2023/10/16 01:13:13;;;;;;;4.82;2.42;;;7.50;99.90;;;;;;5133302;27;20044;-60
2023/10/16 01:15:52;;;;;;;5.22;3.53;;;7.50;99.90;;;;;;5132956;27;20043;-63
2023/10/16 01:18:19;;;;;;;5.70;2.63;;;7.30;99.90;;;;;;5124361;27;20048;-62
2023/10/16 01:20:48;;;;;;;5.75;2.50;;;7.30;99.90;;;;;;5091790;28;20163;-62
2023/10/16 01:23:18;;;;;;;4.88;2.65;;;7.30;99.90;;;;;;5091456;28;20056;-62
2023/10/16 01:25:48;;;;;;;4.32;2.45;;;7.20;99.90;;;;;;5074948;28;20118;-63
2023/10/16 01:28:19;;;;;;;6.82;2.80;;;7.30;99.90;;;;;;5079684;28;20063;-61
2023/10/16 01:30:49;;;;;;;6.25;2.63;;;7.30;99.90;;;;;;5111864;28;20055;-62
2023/10/16 01:33:19;;;;;;;7.85;3.65;;;7.40;99.90;;;;;;5111764;28;20051;-62
2023/10/16 01:35:46;;;;;;;5.30;3.10;;;7.40;99.90;;;;;;5112125;28;20039;-62
2023/10/16 01:38:16;;;;;;;6.53;2.92;;;7.40;99.90;;;;;;5108656;28;20044;-62
2023/10/16 01:41:02;;;;;;;7.03;2.83;;;7.30;99.90;;;;;;5091266;28;20044;-63
2023/10/16 01:43:29;;;;;;;6.63;2.72;;;7.40;99.90;;;;;;5108063;28;20197;-63
2023/10/16 01:46:00;;;;;;;4.93;3.00;;;7.40;99.90;;;;;;5091546;28;20051;-62
2023/10/16 01:48:29;;;;;;;4.72;2.75;;;7.40;99.90;;;;;;5108328;28;20051;-62
2023/10/16 01:50:56;;;;;;;5.05;3.17;;;7.50;99.90;;;;;;5091395;28;20056;-63
2023/10/16 01:53:25;;;;;;;6.72;2.70;;;7.40;99.90;;;;;;5091034;28;20070;-63
2023/10/16 01:55:54;;;;;;;4.20;3.08;;;7.50;99.90;;;;;;5092569;28;20052;-62
2023/10/16 01:58:24;;;;;;;5.68;2.42;;;7.50;99.90;;;;;;5092178;28;20436;-63
2023/10/16 02:00:52;;;;;;;5.05;3.10;;;7.40;99.90;;;;;;5091034;28;20062;-63
2023/10/16 02:03:19;;;;;;;5.03;2.65;;;7.40;99.90;;;;;;5091965;28;20059;-64
2023/10/16 02:05:46;;;;;;;4.13;2.70;;;7.50;99.90;;;;;;5090913;28;20472;-63
2023/10/16 02:08:13;;;;;;;6.10;3.00;;;7.50;99.90;;;;;;5090948;28;20052;-63
2023/10/16 02:10:43;;;;;;;3.75;3.03;;;7.60;99.90;;;;;;5091321;28;20363;-64
2023/10/16 02:13:10;;;;;;;5.05;2.63;;;7.50;99.90;;;;;;5091176;28;20051;-63
2023/10/16 02:15:37;;;;;;;6.43;3.10;;;7.60;99.90;;;;;;5091060;28;20044;-63
2023/10/16 02:18:13;;;;;;;4.45;2.55;;;7.70;99.90;;;;;;5091133;28;20094;-62
2023/10/16 02:20:42;;;;;;;6.43;3.08;;;7.60;99.90;;;;;;5091846;28;20084;-62
2023/10/16 02:23:08;;;;;;;5.10;2.67;;;7.60;99.90;;;;;;5090705;28;20052;-63
2023/10/16 02:25:35;;;;;;;5.53;2.35;;;7.70;99.90;;;;;;5090924;28;20048;-63
2023/10/16 02:28:03;;;;;;;4.10;2.97;;;7.80;99.90;;;;;;5090501;28;20063;-63
2023/10/16 02:30:35;;;;;;;5.50;2.75;;;7.80;99.90;;;;;;5090928;28;20048;-63
2023/10/16 02:33:14;;;;;;;;;;;7.80;99.90;;;;;;5074442;28;20124;-61
2023/10/16 02:35:48;;;;;;;4.45;2.30;;;7.80;99.90;;;;;;5090624;28;19932;-63
2023/10/16 02:38:23;;;;;;;5.82;2.47;;;7.80;99.90;;;;;;5091476;28;20040;-63
2023/10/16 02:40:53;;;;;;;3.58;1.90;;;7.80;99.90;;;;;;5090893;28;20062;-63
2023/10/16 02:43:20;;;;;;;4.32;1.92;;;7.70;99.90;;;;;;5093555;28;20505;-63
2023/10/16 02:45:51;;;;;;;3.97;1.75;;;7.70;99.90;;;;;;5077530;28;20055;-64
2023/10/16 02:48:21;;;;;;;5.47;1.95;;;7.80;99.90;;;;;;5094757;28;20055;-62
2023/10/16 02:50:59;;;;;;;4.05;2.08;;;7.70;99.90;;;;;;5111719;28;20043;-62
2023/10/16 02:53:26;;;;;;;7.03;2.00;;;7.70;99.90;;;;;;5093702;28;20047;-63
2023/10/16 02:55:57;;;;;;;4.82;2.03;;;7.70;99.90;;;;;;5077324;28;20142;-62
2023/10/16 02:58:30;;;;;;;4.10;1.92;;;7.70;99.90;;;;;;5098106;28;20043;-61
2023/10/16 03:00:58;;;;;;;3.17;1.75;;;7.70;99.90;;;;;;5114302;28;20047;-62
2023/10/16 03:03:26;;;;;;;3.25;1.90;;;7.90;99.90;;;;;;5113952;28;20082;-62
2023/10/16 03:06:01;;;;;;;2.95;1.70;;;7.80;99.90;;;;;;5132245;28;20062;-63
2023/10/16 03:08:29;;;;;;;4.60;2.03;;;7.70;99.90;;;;;;5109978;28;20054;-63
2023/10/16 03:10:57;;;;;;;4.05;1.77;;;7.90;99.90;;;;;;5093749;28;20398;-62
2023/10/16 03:13:24;;;;;;;5.53;1.80;;;7.80;99.90;;;;;;5093525;28;20061;-63
2023/10/16 03:15:59;;;;;;;2.22;1.60;;;7.80;99.90;;;;;;5093812;28;20047;-61
2023/10/16 03:18:25;;;;;;;3.00;1.52;;;7.80;99.90;;;;;;5097502;28;20039;-61
2023/10/16 03:21:26;;;;;;;4.75;1.77;;;7.90;99.90;;;;;;5114296;28;20035;-62
2023/10/16 03:23:51;;;;;;;5.45;1.60;;;7.90;99.90;;;;;;5113577;28;20102;-61
2023/10/16 03:26:25;;;;;;;5.57;1.90;;;7.90;99.90;;;;;;5132444;28;20051;-62
2023/10/16 03:28:56;;;;;;;3.50;1.58;;;7.90;99.90;;;;;;5113467;28;20043;-63
2023/10/16 03:31:23;;;;;;;4.78;1.98;;;7.90;99.90;;;;;;5114356;28;20058;-62
2023/10/16 03:33:50;;;;;;;3.85;1.90;;;8.00;99.90;;;;;;5113679;28;20059;-61
2023/10/16 03:36:17;;;;;;;2.90;1.50;;;8.00;99.90;;;;;;5113481;28;20254;-63
2023/10/16 03:38:43;;;;;;;3.35;1.42;;;8.00;99.90;;;;;;5107107;28;20163;-62
2023/10/16 03:43:56;;;;;;;4.18;1.42;;;8.00;99.90;;;;;;5096469;28;20051;-61
2023/10/16 03:46:26;;;;;;;3.53;1.92;;;8.00;99.90;;;;;;5097203;28;20055;-63
2023/10/16 03:48:54;;;;;;;5.00;1.98;;;8.00;99.90;;;;;;5104779;27;20082;-62
2023/10/16 03:51:21;;;;;;;2.78;1.55;;;8.00;99.90;;;;;;5117509;27;20508;-63
2023/10/16 03:53:50;;;;;;;3.45;1.85;;;8.00;99.90;;;;;;5117301;27;20047;-61
2023/10/16 03:56:17;;;;;;;3.65;1.58;;;7.90;99.90;;;;;;5117007;27;20047;-61
2023/10/16 03:58:44;;;;;;;5.25;1.60;;;7.90;99.90;;;;;;5110594;28;20063;-63
2023/10/16 04:01:11;;;;;;;5.20;1.73;;;7.90;99.90;;;;;;5115150;28;20044;-62
2023/10/16 04:03:47;;;;;;;3.72;1.85;;;8.00;99.90;;;;;;5096258;28;20073;-61
2023/10/16 04:06:19;;;;;;;5.65;1.70;;;7.90;99.90;;;;;;5096528;28;20078;-63
2023/10/16 04:08:49;;;;;;;3.92;1.90;;;7.90;99.90;;;;;;5103330;27;20383;-63
2023/10/16 04:11:17;;;;;;;4.75;1.60;;;7.90;99.90;;;;;;5116849;27;20282;-62
2023/10/16 04:13:52;;;;;;;3.33;1.88;;;8.00;99.90;;;;;;5099906;27;20062;-61
2023/10/16 04:21:47;;;;;;;5.75;1.83;;;7.90;99.90;;;;;;5113897;28;19934;-63
2023/10/16 04:24:30;;;;;;;4.55;2.10;;;7.90;99.90;;;;;;5096320;28;20066;-60
2023/10/16 04:29:45;;;;;;;3.50;1.67;;;7.90;99.90;;;;;;5110077;27;20058;-62
2023/10/16 04:35:03;;;;;;;4.90;2.00;;;7.70;99.90;;;;;;5116723;27;20486;-62
2023/10/16 04:37:31;;;;;;;2.88;2.17;;;7.80;99.90;;;;;;5116430;27;20043;-62
2023/10/16 04:42:50;;;;;;;3.00;1.90;;;7.70;99.90;;;;;;5100281;27;20058;-63
2023/10/16 04:47:56;;;;;;;5.32;2.10;;;7.70;99.90;;;;;;5105868;28;20055;-63
2023/10/16 04:50:29;;;;;;;4.75;2.30;;;7.60;99.90;;;;;;5104107;27;20536;-62
2023/10/16 05:00:57;;;;;;;2.22;1.63;;;7.50;99.90;;;;;;5133382;27;20058;-61
2023/10/16 05:03:23;;;;;;;;;;;7.60;99.90;;;;;;5116309;27;20062;-62
2023/10/16 05:06:02;;;;;;;4.15;2.20;;;7.50;99.90;;;;;;5111665;27;20233;-62
2023/10/16 05:08:38;;;;;;;3.22;2.03;;;7.50;99.90;;;;;;5104060;28;20120;-58
2023/10/16 05:11:27;;;;;;;4.55;2.10;;;7.70;99.90;;;;;;5100175;28;20077;-61
2023/10/16 05:16:49;;;;;;;3.10;1.92;;;7.70;99.90;;;;;;5101504;28;20052;-63
2023/10/16 06:16:31;;;;;;;6.88;3.60;;;7.80;99.90;;;;;;5096891;28;20046;-63
2023/10/16 06:18:59;;;;;;;6.93;3.28;;;7.90;99.90;;;;;;5100216;28;20047;-62
2023/10/16 06:21:25;;;;;;;5.55;2.97;;;7.90;99.90;;;;;;5093905;28;20043;-64
2023/10/16 06:23:51;;;;;;;5.68;3.03;;;7.90;99.90;;;;;;5102580;28;20051;-62
2023/10/16 06:26:21;;;;;;;5.47;3.13;;;8.00;99.90;;;;;;5103680;28;20051;-62
2023/10/16 06:28:47;;;;;;;5.53;2.65;;;8.00;99.90;;;;;;5081688;28;20459;-64
2023/10/16 06:31:23;;;;;;;6.35;3.20;;;8.00;99.90;;;;;;5104526;28;20127;-63
2023/10/16 06:33:56;;;;;;;7.80;3.17;;;8.10;99.90;;;;;;5100729;28;20051;-63
2023/10/16 06:36:24;;;;;;;4.70;2.63;;;8.10;99.90;;;;;;5093526;28;20147;-64
2023/10/16 06:38:53;;;;;;;4.85;2.90;;;8.20;99.90;;;;;;5111512;28;20168;-63
2023/10/16 06:41:22;;;;;;;4.90;2.90;;;8.20;99.90;;;;;;5105024;28;20048;-64
2023/10/16 06:43:49;;;;;;;5.20;2.65;;;8.10;99.90;;;;;;5094775;28;20055;-62
2023/10/16 06:46:25;;;;;;;6.65;2.55;;;8.30;99.90;;;;;;5094869;28;20059;-62
2023/10/16 06:48:53;;;;;;;4.97;2.92;;;8.30;99.90;;;;;;5085460;28;20080;-63
2023/10/16 06:51:25;;;;;;;3.80;3.30;;;8.30;99.90;;;;;;5134074;27;20059;-63
2023/10/16 06:54:01;;;;;;;4.80;2.70;;;8.30;99.90;;;;;;5135921;27;20396;-63
2023/10/16 06:56:30;;;;;;;6.50;3.58;;;8.30;99.90;;;;;;5135508;27;20043;-62
2023/10/16 06:58:58;;;;;;;4.85;3.30;;;8.30;99.90;;;;;;5113407;28;20418;-63
2023/10/16 07:01:27;;;;;;;5.88;2.45;;;8.30;99.90;;;;;;5094473;28;20051;-62
2023/10/16 07:03:54;;;;;;;5.80;2.90;;;8.40;99.90;;;;;;5078181;28;20439;-63
2023/10/16 07:06:32;;;;;;;3.97;2.90;;;8.40;99.90;;;;;;5115197;27;20047;-63
2023/10/16 07:09:05;;;;;;;5.78;2.67;;;8.50;99.90;;;;;;5134635;27;20070;-62
2023/10/16 07:11:32;;;;;;;6.13;3.00;;;8.40;99.90;;;;;;5135202;27;20066;-63
2023/10/16 07:13:59;;;;;;;6.57;3.03;;;8.50;99.90;;;;;;5135414;27;20129;-63
2023/10/16 07:16:25;;;;;;;6.28;3.05;;;8.60;99.90;;;;;;5138820;27;20046;-63
2023/10/16 07:18:57;;;;;;;6.57;3.15;;;8.60;99.90;;;;;;5133408;27;20083;-63
2023/10/16 07:21:25;;;;;;;5.30;3.08;;;8.60;99.90;;;;;;5105595;27;20043;-63
2023/10/16 07:23:54;;;;;;;4.95;2.97;;;8.80;99.90;;;;;;5090549;28;20127;-63
2023/10/16 07:26:24;;;;;;;7.30;3.75;;;8.80;99.90;;;;;;5099672;27;20054;-63
2023/10/16 07:28:51;;;;;;;6.30;3.55;;;8.90;99.90;;;;;;5118756;27;20373;-63
2023/10/16 07:31:18;;;;;;;5.15;3.40;;;8.80;99.90;;;;;;5101233;27;20065;-62
2023/10/16 07:33:45;;;;;;;6.05;2.67;;;8.80;99.90;;;;;;5118586;27;20043;-63
2023/10/16 07:36:12;;;;;;;6.07;3.33;;;8.80;99.90;;;;;;5118224;27;20050;-63
2023/10/16 07:38:39;;;;;;;5.88;3.17;;;8.90;99.90;;;;;;5105073;27;20050;-64
2023/10/16 07:41:05;;;;;;;4.70;3.40;;;8.90;99.90;;;;;;5128437;27;20051;-61
2023/10/16 07:43:36;;;;;;;8.10;3.03;;;9.00;99.90;;;;;;5097636;28;20051;-64
2023/10/16 07:48:50;;;;;;;3.88;3.40;;;9.00;99.90;;;;;;5106398;27;20051;-63
2023/10/16 07:51:22;;;;;;;6.32;3.22;;;9.10;99.90;;;;;;5138663;27;20062;-62
2023/10/16 07:53:48;;;;;;;5.05;3.10;;;9.20;99.90;;;;;;5139033;27;20052;-62
2023/10/16 07:58:56;;;;;;;5.75;2.92;;;9.50;99.90;;;;;;5117177;27;20126;-63
2023/10/16 08:01:48;;;;;;;4.15;2.85;;;9.50;99.90;;;;;;5088109;28;20047;-62
2023/10/16 08:04:19;;;;;;;7.18;3.03;;;9.40;99.90;;;;;;5097904;28;20055;-62
2023/10/16 08:06:53;;;;;;;12.63;5.50;;;9.50;99.90;;;;;;5080403;28;20147;-62
2023/10/16 08:12:12;;;;;;;16.83;7.53;;;9.40;99.90;;;;;;5112583;28;20112;-63
2023/10/16 08:14:41;;;;;;;;;;;9.50;99.90;;;;;;5097755;28;20055;-63
2023/10/16 08:17:14;;;;;;;17.08;9.13;;;9.50;99.90;;;;;;5097031;28;19968;-64
2023/10/16 08:19:41;;;;;;;10.73;8.02;;;9.60;99.90;;;;;;5140101;27;20359;-62
2023/10/16 08:22:08;;;;;;;12.15;4.30;;;9.70;99.90;;;;;;5138010;27;20043;-63
2023/10/16 08:24:43;;;;;;;9.75;3.95;;;9.80;99.90;;;;;;5156353;27;20059;-63
2023/10/16 08:30:17;;;;;;;10.05;3.17;;;9.90;99.90;;;;;;5122920;27;20055;-62
2023/10/16 08:35:17;;;;;;;4.93;2.55;;;9.90;99.90;;;;;;5112429;28;20058;-61
2023/10/16 08:37:44;;;;;;;5.25;2.92;;;9.90;99.90;;;;;;5115234;27;20475;-61
2023/10/16 08:40:20;;;;;;;5.40;2.85;;;10.00;99.90;;;;;;5139136;27;20059;-63
2023/10/16 08:43:01;;;;;;;8.43;4.55;;;10.10;99.90;;;;;;5096645;28;20054;-63
2023/10/16 08:45:29;;;;;;;8.45;2.92;;;10.20;99.90;;;;;;5097155;28;20124;-61
2023/10/16 08:47:57;;;;;;;9.07;2.80;;;10.20;99.90;;;;;;5096762;28;20429;-63
2023/10/16 08:53:30;;;;;;;9.68;2.30;;;10.30;99.90;;;;;;5103615;28;20271;-63
2023/10/16 08:56:08;;;;;;;5.40;2.10;;;10.50;99.90;;;;;;5114946;28;20044;-64
2023/10/16 08:58:43;;;;;;;7.05;2.13;;;10.40;99.90;;;;;;5100724;27;20047;-63
2023/10/16 09:01:11;;;;;;;5.07;1.85;;;10.50;99.90;;;;;;5134432;27;20459;-63
2023/10/16 09:03:42;;;;;;;11.90;2.28;;;10.50;99.90;;;;;;5116940;27;20055;-63
2023/10/16 09:06:08;;;;;;;4.70;1.70;;;10.70;99.90;;;;;;5116894;27;20051;-63
2023/10/16 09:08:35;;;;;;;5.53;1.77;;;10.50;99.90;;;;;;5131710;27;20047;-64
2023/10/16 09:11:06;;;;;;;3.50;1.80;;;10.70;99.90;;;;;;5099810;27;20035;-63
2023/10/16 09:13:36;;;;;;;3.22;1.83;;;10.80;99.90;;;;;;5112633;27;20065;-64
2023/10/16 09:16:08;;;;;;;6.38;2.30;;;10.90;99.90;;;;;;5117032;27;20482;-64
2023/10/16 09:18:34;;;;;;;4.00;2.40;;;10.80;99.90;;;;;;5131251;27;20454;-64
2023/10/16 09:21:01;;;;;;;5.40;2.65;;;10.80;99.90;;;;;;5137356;27;20054;-63
2023/10/16 09:23:36;;;;;;;5.30;2.70;;;10.80;99.90;;;;;;5137495;27;20118;-64
2023/10/16 09:26:06;;;;;;;4.05;2.88;;;10.90;99.90;;;;;;5137309;27;20047;-63
2023/10/16 09:28:35;;;;;;;6.53;2.15;;;11.10;99.90;;;;;;5135033;27;20051;-65
2023/10/16 09:31:06;;;;;;;7.38;2.80;;;11.20;99.90;;;;;;5116299;27;20485;-64
2023/10/16 09:33:35;;;;;;;5.57;3.08;;;11.30;99.90;;;;;;5135247;27;20058;-64
2023/10/16 09:36:18;;;;;;;6.40;2.95;;;11.20;99.90;;;;;;5134501;27;20043;-64
2023/10/16 09:38:46;;;;;;;3.97;2.13;;;11.50;99.90;;;;;;5102187;27;20407;-63
2023/10/16 09:44:09;;;;;;;5.13;2.13;;;11.40;99.90;;;;;;5095521;28;20112;-63
2023/10/16 09:49:13;;;;;;;5.60;2.33;;;11.60;99.90;;;;;;5110161;27;20046;-63
2023/10/16 09:51:44;;;;;;;6.55;2.15;;;11.80;99.90;;;;;;5136173;27;20065;-65
2023/10/16 09:54:13;;;;;;;8.80;2.20;;;11.80;99.90;;;;;;5136795;27;20055;-64
2023/10/16 09:56:52;;;;;;;6.28;2.50;;;11.90;99.90;;;;;;5118272;27;20101;-64
2023/10/16 09:59:33;;;;;;;7.38;2.50;;;12.00;99.90;;;;;;5084202;28;20050;-63
2023/10/16 10:02:16;;;;;;;8.32;2.10;;;12.10;99.90;;;;;;5095600;28;20047;-64
2023/10/16 10:04:59;;;;;;;3.67;1.55;;;12.20;99.90;;;;;;5114355;27;20635;-63
2023/10/16 10:07:38;;;;;;;4.97;1.20;;;12.10;99.90;;;;;;5095937;28;20410;-65
2023/10/16 10:11:05;;;;;;;5.28;1.52;;;12.10;99.90;;;;;;5108082;27;20112;-64
2023/10/16 10:13:10;;;;;;;6.38;2.42;;;12.10;99.90;;;;;;5091864;28;20055;-64
2023/10/16 10:15:44;;;;;;;4.57;1.60;;;12.20;99.90;;;;;;5095289;28;20047;-61
2023/10/16 10:18:42;;;;;;;4.00;1.85;;;12.30;99.90;;;;;;5095319;28;20425;-62
2023/10/16 10:21:18;;;;;;;4.55;1.73;;;12.50;99.90;;;;;;5096588;28;20471;-63
2023/10/16 10:23:49;;;;;;;3.50;2.00;;;12.60;99.90;;;;;;5105528;28;20069;-62
2023/10/16 10:26:18;;;;;;;5.70;2.75;;;12.60;99.90;;;;;;5097296;28;20054;-61
2023/10/16 10:28:45;;;;;;;4.38;2.60;;;12.70;99.90;;;;;;5102037;27;20467;-64
2023/10/16 10:31:15;;;;;;;3.53;2.20;;;12.80;99.90;;;;;;5135732;27;20058;-63
2023/10/16 10:33:42;;;;;;;4.03;2.13;;;12.70;99.90;;;;;;5135924;27;20050;-62
2023/10/16 10:36:27;;;;;;;4.82;1.60;;;12.80;99.90;;;;;;5135966;27;20046;-62
2023/10/16 10:39:20;;;;;;;4.18;1.60;;;12.90;99.90;;;;;;5136149;27;20043;-64
2023/10/16 10:41:47;;;;;;;4.03;1.40;;;13.00;99.90;;;;;;5119834;28;20647;-63
2023/10/16 10:44:16;;;;;;;3.05;1.40;;;13.10;99.90;;;;;;5091231;28;20060;-64
2023/10/16 10:46:49;;;;;;;3.70;1.42;;;13.10;99.90;;;;;;5092325;28;20055;-64
2023/10/16 10:49:16;;;;;;;4.68;1.40;;;13.20;99.90;;;;;;5101740;27;20054;-64
2023/10/16 10:51:46;;;;;;;4.55;1.60;;;13.30;99.90;;;;;;5116001;28;20051;-63
2023/10/16 10:54:15;;;;;;;5.57;1.58;;;13.40;99.90;;;;;;5116270;28;20112;-64
2023/10/16 10:56:48;;;;;;;6.43;1.60;;;13.40;99.90;;;;;;5115830;28;20051;-65
2023/10/16 10:59:47;;;;;;;6.65;1.42;;;13.40;99.90;;;;;;5109036;27;20581;-63
2023/10/16 11:04:53;;;;;;;6.35;1.48;;;13.20;99.90;;;;;;5095951;28;20048;-64
2023/10/16 11:07:29;;;;;;;4.20;1.45;;;13.30;99.90;;;;;;5095378;28;20047;-63
2023/10/16 11:09:57;;;;;;;3.53;1.13;;;13.20;99.90;;;;;;5121623;27;20362;-64
2023/10/16 11:12:24;;;;;;;3.65;1.35;;;13.40;99.90;;;;;;5136323;27;20119;-64
2023/10/16 11:14:51;;;;;;;5.63;1.90;;;13.50;99.90;;;;;;5136129;27;20055;-63
2023/10/16 11:17:40;;;;;;;5.43;1.33;;;13.60;99.90;;;;;;5118930;27;20107;-62
2023/10/16 11:22:44;;;;;;;7.95;1.80;;;13.70;99.90;;;;;;5136303;27;20051;-63
2023/10/16 11:25:14;;;;;;;7.78;1.80;;;13.60;99.90;;;;;;5136181;27;20099;-63
2023/10/16 11:27:42;;;;;;;2.53;1.27;;;13.60;99.90;;;;;;5135904;27;20055;-63
2023/10/16 11:30:18;;;;;;;3.22;1.50;;;13.60;99.90;;;;;;5100049;28;20471;-62
2023/10/16 11:32:49;;;;;;;4.50;1.70;;;13.40;99.90;;;;;;5077958;28;20307;-64
2023/10/16 11:35:19;;;;;;;6.43;1.70;;;13.40;99.90;;;;;;5094700;28;20486;-63
2023/10/16 11:37:50;;;;;;;5.45;1.70;;;13.40;99.90;;;;;;5094564;28;20055;-63
2023/10/16 11:40:18;;;;;;;4.70;1.80;;;13.40;99.90;;;;;;5111348;27;20349;-63
2023/10/16 11:42:48;;;;;;;6.32;1.38;;;13.40;99.90;;;;;;5138875;27;20478;-62
2023/10/16 11:45:19;;;;;;;5.40;2.03;;;13.40;99.90;;;;;;5139246;27;20460;-62
2023/10/16 11:48:04;;;;;;;7.15;1.88;;;13.50;99.90;;;;;;5139164;27;20436;-62
2023/10/16 11:50:40;;;;;;;5.10;1.42;;;13.60;99.90;;;;;;5137356;27;20046;-64
2023/10/16 11:53:07;;;;;;;6.07;1.83;;;13.60;99.90;;;;;;5139060;27;20046;-63
2023/10/16 11:55:37;;;;;;;5.80;1.70;;;13.60;99.90;;;;;;5138806;27;20050;-64
2023/10/16 11:58:07;;;;;;;8.73;2.72;;;13.70;99.90;;;;;;5138830;27;20062;-64
2023/10/16 12:00:42;;;;;;;5.82;1.65;;;13.80;99.90;;;;;;5119607;27;20047;-63
2023/10/16 12:03:14;;;;;;;5.97;1.75;;;13.70;99.90;;;;;;5118556;27;20063;-63
2023/10/16 12:05:44;;;;;;;5.13;1.52;;;13.80;99.90;;;;;;5117895;27;20447;-64
2023/10/16 12:08:10;;;;;;;6.45;1.70;;;14.00;99.90;;;;;;5118110;27;20078;-63
2023/10/16 12:10:37;;;;;;;4.28;1.25;;;13.80;99.90;;;;;;5118933;27;20390;-64
2023/10/16 12:13:04;;;;;;;4.25;1.50;;;13.80;99.90;;;;;;5138520;27;20042;-64
2023/10/16 12:15:33;;;;;;;4.55;1.77;;;13.90;99.90;;;;;;5122143;27;20363;-63
2023/10/16 12:18:01;;;;;;;6.97;2.10;;;14.00;99.90;;;;;;5138536;27;20047;-63
2023/10/16 12:20:27;;;;;;;4.90;2.10;;;14.00;99.90;;;;;;5100585;28;20473;-64
2023/10/16 12:22:58;;;;;;;4.88;1.48;;;14.00;99.90;;;;;;5099969;27;20044;-64
2023/10/16 12:25:24;;;;;;;5.60;1.58;;;14.10;99.90;;;;;;5083191;28;20040;-65
2023/10/16 12:27:53;;;;;;;4.03;1.40;;;14.10;99.90;;;;;;5083660;28;20337;-62
2023/10/16 12:30:19;;;;;;;3.92;1.70;;;14.20;99.90;;;;;;5125090;27;20043;-63
2023/10/16 12:32:46;;;;;;;4.15;1.30;;;14.20;99.90;;;;;;5114218;28;20509;-63
2023/10/16 12:35:13;;;;;;;4.43;1.73;;;14.20;99.90;;;;;;5097820;28;20074;-63
2023/10/16 12:37:41;;;;;;;4.60;1.70;;;14.20;99.90;;;;;;5097096;28;20135;-63
2023/10/16 12:42:55;;;;;;;4.57;1.95;;;14.20;99.90;;;;;;5095031;28;20071;-64
2023/10/16 12:45:22;;;;;;;4.03;1.50;;;14.40;99.90;;;;;;5097533;28;20059;-62
2023/10/16 12:47:52;;;;;;;3.47;1.50;;;14.40;99.90;;;;;;5113995;28;20047;-64
2023/10/16 12:50:24;;;;;;;3.63;1.70;;;14.40;99.90;;;;;;5109618;28;20379;-64
2023/10/16 12:52:54;;;;;;;5.15;1.23;;;14.30;99.90;;;;;;5114885;28;20088;-64
2023/10/16 12:55:24;;;;;;;5.75;2.17;;;14.40;99.90;;;;;;5113686;28;20518;-63
2023/10/16 12:57:51;;;;;;;3.63;1.17;;;14.40;99.90;;;;;;5113696;28;20044;-64
2023/10/16 13:00:19;;;;;;;6.55;1.48;;;14.40;99.90;;;;;;5097827;28;20048;-65
2023/10/16 13:02:47;;;;;;;5.18;1.40;;;14.40;99.90;;;;;;5093287;28;20044;-63
2023/10/16 13:05:13;;;;;;;3.28;1.23;;;14.40;99.90;;;;;;5093233;28;20393;-64
2023/10/16 13:07:44;;;;;;;4.82;1.35;;;14.30;99.90;;;;;;5075975;28;20120;-63
2023/10/16 13:10:14;;;;;;;2.90;1.50;;;14.30;99.90;;;;;;5076063;28;20077;-62
2023/10/16 13:12:44;;;;;;;3.03;1.35;;;14.30;99.90;;;;;;5091904;28;20494;-64
2023/10/16 13:15:15;;;;;;;6.72;1.98;;;14.30;99.90;;;;;;5108500;28;20051;-65
2023/10/16 13:17:44;;;;;;;4.55;1.48;;;14.30;99.90;;;;;;5107260;28;20048;-64
2023/10/16 13:20:17;;;;;;;6.43;1.55;;;14.20;99.90;;;;;;5095997;28;20121;-63
2023/10/16 13:22:52;;;;;;;4.22;1.70;;;14.20;99.90;;;;;;5100923;28;20143;-64
2023/10/16 13:25:22;;;;;;;4.85;1.63;;;14.10;99.90;;;;;;5101203;28;20047;-63
2023/10/16 13:27:48;;;;;;;7.72;4.35;;;14.10;99.90;;;;;;5101179;28;20544;-64
2023/10/16 13:30:16;;;;;;;9.23;5.65;;;14.10;99.90;;;;;;5099714;28;20048;-65
2023/10/16 13:32:47;;;;;;;6.45;3.50;;;14.20;99.90;;;;;;5086058;28;20036;-65
2023/10/16 13:35:18;;;;;;;4.15;2.60;;;14.10;99.90;;;;;;5096664;28;20056;-64
2023/10/16 13:37:50;;;;;;;5.68;2.42;;;14.00;99.90;;;;;;5093213;28;20400;-67
2023/10/16 13:40:21;;;;;;;5.95;2.90;;;14.10;99.90;;;;;;5082502;28;20056;-65
2023/10/16 13:42:49;;;;;;;5.30;2.38;;;14.10;99.90;;;;;;5100718;28;20051;-64
2023/10/16 13:45:16;;;;;;;4.07;1.63;;;14.10;99.90;;;;;;5095822;28;20054;-65
2023/10/16 13:47:46;;;;;;;4.25;1.52;;;14.10;99.90;;;;;;5095729;28;20086;-65
2023/10/16 13:50:14;;;;;;;4.90;1.65;;;14.00;99.90;;;;;;5107455;27;20066;-65
2023/10/16 13:52:43;;;;;;;5.50;2.05;;;14.00;99.90;;;;;;5107254;27;20483;-64
2023/10/16 13:55:14;;;;;;;6.05;1.67;;;14.00;99.90;;;;;;5111303;27;20062;-64
2023/10/16 13:57:44;;;;;;;6.25;1.75;;;14.10;99.90;;;;;;5115908;27;20394;-63
2023/10/16 14:03:08;;;;;;;;;;;14.10;99.90;;;;;;5136937;27;20054;-64
2023/10/16 14:05:41;;;;;;;3.60;1.50;;;14.00;99.90;;;;;;5136184;27;19919;-64
2023/10/16 14:08:09;;;;;;;4.95;1.60;;;14.00;99.90;;;;;;5114156;27;20055;-65
2023/10/16 14:10:39;;;;;;;4.60;1.60;;;13.90;99.90;;;;;;5129590;27;20111;-64
2023/10/16 14:13:18;;;;;;;4.78;1.63;;;13.80;99.90;;;;;;5135988;27;20051;-65
2023/10/16 14:15:46;;;;;;;3.40;1.80;;;13.90;99.90;;;;;;5119184;27;20050;-63
2023/10/16 14:18:20;;;;;;;3.45;1.65;;;13.80;99.90;;;;;;5135734;27;20051;-63
2023/10/16 14:20:48;;;;;;;6.88;1.63;;;13.80;99.90;;;;;;5099772;27;20074;-63
2023/10/16 14:23:15;;;;;;;4.07;2.05;;;13.80;99.90;;;;;;5114892;27;20102;-63
2023/10/16 14:25:48;;;;;;;5.60;1.52;;;13.80;99.90;;;;;;5115337;27;20465;-63
2023/10/16 14:28:34;;;;;;;4.88;1.40;;;13.80;99.90;;;;;;5129156;27;20046;-63
2023/10/16 14:31:02;;;;;;;3.05;1.15;;;13.80;99.90;;;;;;5134660;27;20051;-64
2023/10/16 14:33:30;;;;;;;4.70;2.33;;;13.80;99.90;;;;;;5126166;27;20490;-63
2023/10/16 14:35:58;;;;;;;5.05;1.67;;;13.80;99.90;;;;;;5115167;28;20051;-64
2023/10/16 14:38:26;;;;;;;2.72;1.48;;;13.70;99.90;;;;;;5104899;28;20062;-65
2023/10/16 14:41:06;;;;;;;3.42;1.48;;;13.60;99.90;;;;;;5107955;28;20348;-63
2023/10/16 14:43:36;;;;;;;5.75;1.63;;;13.60;99.90;;;;;;5087824;28;20059;-64
2023/10/16 14:46:10;;;;;;;4.82;1.30;;;13.50;99.90;;;;;;5074978;28;20044;-64
2023/10/16 14:48:43;;;;;;;4.28;1.67;;;13.50;99.90;;;;;;5075256;28;20063;-63
2023/10/16 14:51:15;;;;;;;9.60;4.38;;;13.50;99.90;;;;;;5074452;28;20056;-64
2023/10/16 14:53:48;;;;;;;7.20;3.17;;;13.40;99.90;;;;;;5074329;28;20067;-63
2023/10/16 14:56:18;;;;;;;5.20;1.92;;;13.40;99.90;;;;;;5074399;28;20056;-64
2023/10/16 14:58:49;;;;;;;4.60;2.30;;;13.40;99.90;;;;;;5087827;28;20039;-63
2023/10/16 15:01:15;;;;;;;3.25;1.40;;;13.40;99.90;;;;;;5090994;28;20146;-64
2023/10/16 15:03:47;;;;;;;4.65;1.83;;;13.40;99.90;;;;;;5094788;28;20058;-64
2023/10/16 15:06:15;;;;;;;;;;;13.40;99.90;;;;;;5094870;28;20059;-64
2023/10/16 15:08:45;;;;;;;4.78;1.98;;;13.30;99.90;;;;;;5094450;28;20236;-65
2023/10/16 15:11:12;;;;;;;6.88;2.20;;;13.30;99.90;;;;;;5095193;28;20055;-64